Stations météo

réclame
Mon MeteoGroup
K13 Alpha, Pays-Bas (6252): Température de l'air & dewpoint: 14.11.2018 13:00:00 - 20.11.2018 13:00:00 (CET)K13 Alpha, Pays-Bas (6252): Vitesse du vent & gusts: 14.11.2018 13:00:00 - 20.11.2018 13:00:00 (CET)K13 Alpha, Pays-Bas (6252): Direction du vent: 14.11.2018 13:00:00 - 20.11.2018 13:00:00 (CET)K13 Alpha, Pays-Bas (6252): reduced air pressure: 14.11.2018 13:00:00 - 20.11.2018 13:00:00 (CET)
Date & Time tt [°C] td [°C] ff [km/h] ff [knt] fx [km/h] fx [knt] dd ppp [hPa]
20.11.2018 13:00:00 5,3 0,7 65 35 68 37 E 1012,6
20.11.2018 12:00:00 5,9 1,2 63 34 68 37 E 1012,8
20.11.2018 11:00:00 5,7 0,6 61 33 76 41 E 1013,4
20.11.2018 10:00:00 6,5 0,7 65 35 68 37 E 1013,7
20.11.2018 09:00:00 5,7 1,9 67 36 72 39 E 1014,5
20.11.2018 08:00:00 6,6 1,4 61 33 68 37 E 1014,9
20.11.2018 07:00:00 6,8 1,6 70 38 72 39 E 1015,3
20.11.2018 06:00:00 6,4 1,0 76 41 76 41 E 1016,3
20.11.2018 05:00:00 6,3 1,3 68 37 76 41 E 1016,8
20.11.2018 04:00:00 6,6 1,8 70 38 68 37 E 1017,1
20.11.2018 03:00:00 6,8 0,9 68 37 76 41 E 1017,8
20.11.2018 02:00:00 6,9 0,8 68 37 68 37 E 1018,5
20.11.2018 01:00:00 7,5 0,6 70 38 68 37 E 1019,1
20.11.2018 00:00:00 7,6 0,9 67 36 72 39 E 1019,5
19.11.2018 23:00:00 7,5 0,1 65 35 65 35 E 1020,1
19.11.2018 22:00:00 8,0 0,0 61 33 61 33 E 1020,4
19.11.2018 21:00:00 8,2 2,9 59 32 61 33 E 1020,9
19.11.2018 20:00:00 8,3 1,7 61 33 61 33 E 1021,1
19.11.2018 19:00:00 8,3 1,4 63 34 65 35 E 1021,4
19.11.2018 18:00:00 8,5 0,9 68 37 68 37 E 1021,4
19.11.2018 17:00:00 8,1 4,0 68 37 83 45 E 1021,8
19.11.2018 16:00:00 8,3 4,1 54 29 72 39 ENE 1022,1
19.11.2018 15:00:00 8,1 4,3 54 29 72 39 E 1022,9
19.11.2018 14:00:00 7,7 4,7 55 30 61 33 E 1023,4
19.11.2018 13:00:00 8,2 3,5 46 25 50 27 E 1024,2
19.11.2018 12:00:00 8,5 3,4 52 28 50 27 E 1025,0
19.11.2018 11:00:00 8,1 3,7 44 24 50 27 E 1025,8
19.11.2018 10:00:00 7,7 5,0 44 24 50 27 E 1026,1
19.11.2018 09:00:00 7,9 4,4 44 24 50 27 E 1026,3
19.11.2018 08:00:00 8,5 4,3 48 26 54 29 E 1026,5
19.11.2018 07:00:00 8,2 4,1 52 28 58 31 E 1026,8
19.11.2018 06:00:00 8,6 4,0 42 23 43 23 E 1027,1
19.11.2018 05:00:00 8,9 3,8 41 22 43 23 E 1027,4
19.11.2018 04:00:00 8,8 2,4 46 25 54 29 E 1027,9
19.11.2018 03:00:00 8,6 1,7 50 27 54 29 E 1028,6
19.11.2018 02:00:00 8,8 2,6 50 27 54 29 E 1028,8
19.11.2018 01:00:00 8,4 2,5 52 28 58 31 E 1029,5
19.11.2018 00:00:00 8,6 3,1 57 31 58 31 E 1029,7
18.11.2018 23:00:00 8,3 4,8 46 25 50 27 E 1029,9
18.11.2018 22:00:00 8,2 5,6 52 28 54 29 E 1030,1
18.11.2018 21:00:00 9,2 4,7 48 26 50 27 E 1030,2
18.11.2018 20:00:00 9,7 4,7 44 24 43 23 ENE 1030,2
18.11.2018 19:00:00 10,1 3,2 35 19 36 19 ENE 1030,2
18.11.2018 18:00:00 9,9 2,8 39 21 43 23 E 1030,6
18.11.2018 17:00:00 9,9 1,9 42 23 43 23 E 1031,0
18.11.2018 16:00:00 9,8 0,2 44 24 43 23 E 1031,2
18.11.2018 15:00:00 9,8 -0,8 44 24 43 23 E 1031,5
18.11.2018 14:00:00 9,7 -2,9 44 24 43 23 E 1031,6
18.11.2018 13:00:00 9,9 -1,9 46 25 43 23 E 1032,2
18.11.2018 12:00:00 10,2 -1,9 42 23 43 23 E 1032,6
18.11.2018 11:00:00 9,6 3,6 37 20 40 21 E 1032,6
18.11.2018 10:00:00 8,9 3,4 41 22 40 21 E 1032,5
18.11.2018 09:00:00 8,2 4,3 37 20 36 19 E 1032,6
18.11.2018 08:00:00 8,5 4,4 34 18 36 19 E 1032,4
18.11.2018 07:00:00 8,9 4,5 35 19 36 19 E 1032,3
18.11.2018 06:00:00 8,5 4,5 37 20 36 19 E 1032,3
18.11.2018 05:00:00 8,9 5,0 39 21 40 21 E 1032,4
18.11.2018 04:00:00 9,3 4,8 35 19 40 21 E 1032,4
18.11.2018 03:00:00 9,2 4,7 39 21 40 21 E 1032,5
18.11.2018 02:00:00 9,4 3,8 41 22 43 23 E 1032,3
18.11.2018 01:00:00 9,3 4,9 39 21 43 23 ESE 1032,3
18.11.2018 00:00:00 9,3 3,9 41 22 43 23 E 1032,4
17.11.2018 23:00:00 9,0 5,4 42 23 43 23 E 1032,3
17.11.2018 22:00:00 9,1 4,8 41 22 43 23 E 1032,5
17.11.2018 21:00:00 9,9 4,8 46 25 47 25 E 1032,5
17.11.2018 20:00:00 10,4 4,0 44 24 43 23 E 1032,4
17.11.2018 19:00:00 10,2 5,2 41 22 40 21 E 1032,5
17.11.2018 18:00:00 10,0 5,7 41 22 40 21 E 1032,3
17.11.2018 17:00:00 9,4 6,1 34 18 32 18 ESE 1031,9
17.11.2018 16:00:00 8,8 5,2 31 17 32 18 ESE 1031,9
17.11.2018 15:00:00 8,7 5,2 29 16 32 18 ESE 1031,9
17.11.2018 14:00:00 8,7 5,3 34 18 36 19 ESE 1032,0
17.11.2018 13:00:00 8,5 5,2 35 19 36 19 ESE 1032,0
17.11.2018 12:00:00 8,5 5,6 35 19 36 19 ESE 1031,8
17.11.2018 11:00:00 8,7 6,1 34 18 32 18 ESE 1031,9
17.11.2018 10:00:00 9,3 6,2 34 18 36 19 ESE 1031,4
17.11.2018 09:00:00 9,6 6,3 34 18 32 18 ESE 1031,2
17.11.2018 08:00:00 9,5 5,7 34 18 32 18 ESE 1030,7
17.11.2018 07:00:00 9,7 6,1 34 18 32 18 ESE 1030,2
17.11.2018 06:00:00 9,9 6,2 31 17 32 18 ESE 1030,2
17.11.2018 05:00:00 10,3 6,3 28 15 29 16 ESE 1030,3
17.11.2018 04:00:00 10,2 6,5 28 15 29 16 ESE 1030,2
17.11.2018 03:00:00 10,7 7,2 26 14 29 16 ESE 1030,2
17.11.2018 02:00:00 10,9 7,5 24 13 25 14 ESE 1030,1
17.11.2018 01:00:00 10,8 7,1 24 13 25 14 ESE 1029,7
17.11.2018 00:00:00 10,5 7,0 26 14 29 16 SE 1029,6
16.11.2018 23:00:00 10,2 6,7 29 16 29 16 SE 1029,5
16.11.2018 22:00:00 9,5 6,6 28 15 32 18 SE 1029,3
16.11.2018 21:00:00 8,5 6,3 28 15 29 16 SE 1029,2
16.11.2018 20:00:00 7,5 5,8 22 12 29 16 ESE 1029,3
16.11.2018 19:00:00 6,9 5,6 22 12 29 16 ESE 1029,3
16.11.2018 18:00:00 6,8 5,4 24 13 25 14 ESE 1028,7
16.11.2018 17:00:00 6,9 5,5 21 11 25 14 ESE 1028,4
16.11.2018 16:00:00 7,8 6,1 21 11 25 14 SE 1027,9
16.11.2018 15:00:00 8,1 5,9 22 12 25 14 SE 1028,1
16.11.2018 14:00:00 8,2 6,0 18 10 22 12 ESE 1028,1
16.11.2018 13:00:00 9,2 6,6 16 9 18 10 ESE 1028,2
16.11.2018 12:00:00 10,0 7,5 16 9 18 10 ESE 1028,2
16.11.2018 11:00:00 10,5 8,0 13 7 14 8 E 1028,4
16.11.2018 10:00:00 10,9 8,2 9 5 14 8 SE 1027,8
16.11.2018 09:00:00 11,1 8,7 8 4 11 6 S 1027,4
16.11.2018 08:00:00 11,0 8,7 9 5 14 8 S 1026,6
16.11.2018 07:00:00 11,3 9,5 9 5 18 10 S 1026,1
16.11.2018 06:00:00 11,5 9,9 16 9 25 14 S 1025,7
16.11.2018 05:00:00 11,9 10,5 22 12 25 14 S 1025,1
16.11.2018 04:00:00 12,1 10,3 18 10 25 14 S 1024,9
16.11.2018 03:00:00 12,2 10,5 26 14 25 14 SSE 1024,5
16.11.2018 02:00:00 12,4 10,5 26 14 25 14 S 1024,5
16.11.2018 01:00:00 12,5 10,2 24 13 29 16 S 1024,4
16.11.2018 00:00:00 12,7 10,2 28 15 29 16 S 1024,0
15.11.2018 23:00:00 12,7 10,6 28 15 29 16 S 1023,8
15.11.2018 22:00:00 12,8 10,5 31 17 29 16 S 1023,7
15.11.2018 21:00:00 12,7 11,0 26 14 25 14 S 1023,3
15.11.2018 20:00:00 12,7 10,7 28 15 29 16 S 1023,2
15.11.2018 19:00:00 12,5 10,4 29 16 29 16 SSE 1023,1
15.11.2018 18:00:00 12,3 10,5 31 17 29 16 SSE 1022,7
15.11.2018 17:00:00 12,2 10,8 26 14 25 14 SSE 1022,6
15.11.2018 16:00:00 12,5 11,1 24 13 22 12 SSE 1022,5
15.11.2018 15:00:00 12,3 11,0 24 13 25 14 S 1022,6
15.11.2018 14:00:00 12,2 10,9 26 14 29 16 S 1022,8
15.11.2018 13:00:00 12,1 10,9 29 16 29 16 S 1022,8
15.11.2018 12:00:00 12,3 11,2 28 15 29 16 S 1022,9
15.11.2018 11:00:00 12,3 11,0 31 17 29 16 S 1023,3
15.11.2018 10:00:00 12,3 11,0 31 17 29 16 S 1023,1
15.11.2018 09:00:00 12,4 11,0 29 16 29 16 S 1023,0
15.11.2018 08:00:00 12,4 11,2 28 15 25 14 SSE 1022,8
15.11.2018 07:00:00 12,3 10,9 22 12 25 14 S 1022,7
15.11.2018 06:00:00 12,3 10,9 26 14 29 16 S 1022,5
15.11.2018 05:00:00 12,3 10,5 28 15 29 16 S 1022,2
15.11.2018 04:00:00 12,3 10,6 28 15 29 16 S 1022,3
15.11.2018 03:00:00 12,4 10,2 31 17 32 18 S 1022,2
15.11.2018 02:00:00 12,5 10,2 29 16 32 18 S 1022,4
15.11.2018 01:00:00 12,5 10,0 29 16 32 18 S 1022,7
15.11.2018 00:00:00 12,6 10,1 37 20 36 19 S 1022,9
14.11.2018 23:00:00 12,5 9,9 37 20 40 21 SSW 1023,0
14.11.2018 22:00:00 12,4 9,8 42 23 40 21 SSW 1022,9
14.11.2018 21:00:00 12,3 9,5 41 22 43 23 S 1022,9
14.11.2018 20:00:00 12,3 9,4 41 22 43 23 S 1023,1
14.11.2018 19:00:00 12,4 9,3 42 23 43 23 S 1023,1
14.11.2018 18:00:00 12,5 9,1 48 26 47 25 S 1022,5
14.11.2018 17:00:00 12,7 9,1 48 26 47 25 SSW 1022,5
14.11.2018 16:00:00 12,7 9,9 42 23 47 25 SSW 1022,7
14.11.2018 15:00:00 12,9 10,1 44 24 47 25 SSW 1022,7
14.11.2018 14:00:00 12,9 9,9 44 24 47 25 SSW 1022,6
14.11.2018 13:00:00 13,1 10,1 46 25 47 25 SSW 1023,1

tt = Température de l'air
td = dewpoint
ff = Vitesse du vent
fx = gusts
dd = Direction du vent
ppp = reduced air pressure

stations d'obs. à proximité